createdAt,value
2022-11-26T00:00:31.550Z,0.30
2022-11-26T00:02:58.356Z,0.20
2022-11-26T00:05:27.979Z,0.30
2022-11-26T00:07:57.573Z,0.20
2022-11-26T00:10:27.242Z,0.20
2022-11-26T00:12:55.039Z,0.20
2022-11-26T00:15:30.878Z,0.20
2022-11-26T00:17:57.961Z,0.30
2022-11-26T00:20:30.432Z,0.30
2022-11-26T00:22:58.750Z,0.30
2022-11-26T00:25:27.888Z,0.30
2022-11-26T00:27:57.743Z,0.30
2022-11-26T00:30:28.259Z,0.30
2022-11-26T00:32:56.042Z,0.30
2022-11-26T00:35:23.905Z,0.30
2022-11-26T00:37:58.394Z,0.30
2022-11-26T00:40:27.463Z,0.20
2022-11-26T00:43:00.096Z,0.20
2022-11-26T00:45:30.887Z,0.20
2022-11-26T00:47:57.894Z,0.20
2022-11-26T00:50:27.113Z,0.20
2022-11-26T00:52:57.600Z,0.30
2022-11-26T00:55:27.688Z,0.30
2022-11-26T00:57:54.951Z,0.30
2022-11-26T01:00:26.956Z,0.30
2022-11-26T01:02:54.507Z,0.30
2022-11-26T01:05:22.702Z,0.20
2022-11-26T01:07:51.802Z,0.20
2022-11-26T01:10:21.836Z,0.20
2022-11-26T01:12:49.512Z,0.20
2022-11-26T01:15:18.150Z,0.20
2022-11-26T01:17:45.382Z,0.20
2022-11-26T01:20:26.629Z,0.30
2022-11-26T01:22:55.207Z,0.30
2022-11-26T01:25:23.405Z,0.30
2022-11-26T01:27:50.949Z,0.20
2022-11-26T01:30:26.265Z,0.20
2022-11-26T01:32:53.098Z,0.25
2022-11-26T01:35:21.704Z,0.30
2022-11-26T01:37:49.284Z,0.30
2022-11-26T01:40:53.061Z,0.30
2022-11-26T01:43:26.775Z,0.20
2022-11-26T01:45:54.025Z,0.20
2022-11-26T01:48:33.747Z,0.20
2022-11-26T01:51:06.733Z,0.20
2022-11-26T01:53:47.698Z,0.30
2022-11-26T01:56:14.322Z,0.30
2022-11-26T01:58:44.476Z,0.30
2022-11-26T02:01:11.700Z,0.30
2022-11-26T02:03:45.325Z,0.20
2022-11-26T02:06:19.197Z,0.30
2022-11-26T02:08:46.394Z,0.22
2022-11-26T02:11:19.758Z,0.20
2022-11-26T02:14:11.535Z,0.30
2022-11-26T02:16:50.101Z,0.30
2022-11-26T02:19:44.772Z,0.30
2022-11-26T02:22:42.914Z,0.20
2022-11-26T02:25:27.867Z,0.20
2022-11-26T02:28:31.915Z,0.30
2022-11-26T02:31:27.216Z,0.30
2022-11-26T02:34:11.168Z,0.20
2022-11-26T02:37:01.850Z,0.20
2022-11-26T02:39:29.711Z,0.30
2022-11-26T02:41:58.883Z,0.30
2022-11-26T02:44:32.261Z,0.30
2022-11-26T02:47:10.155Z,0.30
2022-11-26T02:49:39.597Z,0.30
2022-11-26T02:52:09.841Z,0.30
2022-11-26T02:54:37.616Z,0.30
2022-11-26T02:57:07.815Z,0.30
2022-11-26T02:59:35.259Z,0.30
2022-11-26T03:02:17.857Z,0.30
2022-11-26T03:04:50.261Z,0.30
2022-11-26T03:07:18.564Z,0.30
2022-11-26T03:09:58.072Z,0.28
2022-11-26T03:12:25.918Z,0.20
2022-11-26T03:14:52.711Z,0.20
2022-11-26T03:17:20.237Z,0.20
2022-11-26T03:19:47.212Z,0.20
2022-11-26T03:22:15.080Z,0.20
2022-11-26T03:24:42.254Z,0.20
2022-11-26T03:27:09.054Z,0.20
2022-11-26T03:29:35.849Z,0.20
2022-11-26T03:32:02.656Z,0.20
2022-11-26T03:34:29.383Z,0.20
2022-11-26T03:36:56.059Z,0.30
2022-11-26T03:39:22.708Z,0.30
2022-11-26T03:41:49.474Z,0.30
2022-11-26T03:44:16.380Z,0.30
2022-11-26T03:46:43.131Z,0.30
2022-11-26T03:49:09.850Z,0.30
2022-11-26T03:51:36.536Z,0.30
2022-11-26T03:54:03.461Z,0.30
2022-11-26T03:56:30.335Z,0.30
2022-11-26T03:58:56.994Z,0.30
2022-11-26T04:01:23.855Z,0.30
2022-11-26T04:03:52.955Z,0.27
2022-11-26T04:06:19.808Z,0.30
2022-11-26T04:08:46.500Z,0.25
2022-11-26T04:11:13.288Z,0.30
2022-11-26T04:13:39.996Z,0.30
2022-11-26T04:16:07.712Z,0.30
2022-11-26T04:18:34.637Z,0.30
2022-11-26T04:21:01.477Z,0.30
2022-11-26T04:23:29.018Z,0.30
2022-11-26T04:25:55.678Z,0.30
2022-11-26T04:28:22.379Z,0.30
2022-11-26T04:30:49.056Z,0.30
2022-11-26T04:33:15.974Z,0.30
2022-11-26T04:35:42.894Z,0.30
2022-11-26T04:38:09.624Z,0.30
2022-11-26T04:40:36.894Z,0.30
2022-11-26T04:43:03.751Z,0.30
2022-11-26T04:45:30.484Z,0.30
2022-11-26T04:47:57.224Z,0.30
2022-11-26T04:50:24.622Z,0.30
2022-11-26T04:52:51.297Z,0.30
2022-11-26T04:55:18.890Z,0.30
2022-11-26T04:57:48.557Z,0.30
2022-11-26T05:00:17.555Z,0.30
2022-11-26T05:02:45.537Z,0.30
2022-11-26T05:05:13.247Z,0.38
2022-11-26T05:07:40.229Z,0.30
2022-11-26T05:10:08.676Z,0.40
2022-11-26T05:12:36.011Z,0.30
2022-11-26T05:15:03.098Z,0.40
2022-11-26T05:17:29.748Z,0.30
2022-11-26T05:19:56.429Z,0.30
2022-11-26T05:22:23.096Z,0.30
2022-11-26T05:24:49.755Z,0.20
2022-11-26T05:27:16.527Z,0.20
2022-11-26T05:29:44.142Z,0.30
2022-11-26T05:32:10.858Z,0.30
2022-11-26T05:34:37.757Z,0.30
2022-11-26T05:37:04.682Z,0.30
2022-11-26T05:39:31.374Z,0.30
2022-11-26T05:41:58.151Z,0.30
2022-11-26T05:44:24.837Z,0.30
2022-11-26T05:46:51.554Z,0.30
2022-11-26T05:49:18.312Z,0.30
2022-11-26T05:51:45.041Z,0.30
2022-11-26T05:54:15.756Z,0.30
2022-11-26T05:56:43.406Z,0.30
2022-11-26T05:59:10.907Z,0.40
2022-11-26T06:01:37.692Z,0.40
2022-11-26T06:04:04.558Z,0.40
2022-11-26T06:06:31.469Z,0.40
2022-11-26T06:08:58.283Z,0.30
2022-11-26T06:11:25.164Z,0.20
2022-11-26T06:13:52.219Z,0.30
2022-11-26T06:16:19.204Z,0.30
2022-11-26T06:18:46.022Z,0.30
2022-11-26T06:21:12.656Z,0.30
2022-11-26T06:23:41.517Z,0.30
2022-11-26T06:26:12.926Z,0.30
2022-11-26T06:28:40.128Z,0.30
2022-11-26T06:31:09.912Z,0.40
2022-11-26T06:33:37.306Z,0.40
2022-11-26T06:36:05.339Z,0.30
2022-11-26T06:38:32.294Z,0.20
2022-11-26T06:41:04.715Z,0.30
2022-11-26T06:43:32.656Z,0.30
2022-11-26T06:46:04.237Z,0.30
2022-11-26T06:48:31.422Z,0.30
2022-11-26T06:51:02.523Z,0.38
2022-11-26T06:53:29.208Z,0.40
2022-11-26T06:56:00.981Z,0.40
2022-11-26T06:58:27.799Z,0.40
2022-11-26T07:00:55.233Z,0.30
2022-11-26T07:03:24.827Z,0.30
2022-11-26T07:05:53.099Z,0.30
2022-11-26T07:08:19.777Z,0.30
2022-11-26T07:10:49.245Z,0.30
2022-11-26T07:13:16.158Z,0.30
2022-11-26T07:15:42.902Z,0.30
2022-11-26T07:18:09.618Z,0.30
2022-11-26T07:20:37.047Z,0.40
2022-11-26T07:23:04.649Z,0.40
2022-11-26T07:25:31.627Z,0.35
2022-11-26T07:27:58.401Z,0.30
2022-11-26T07:30:25.638Z,0.30
2022-11-26T07:32:52.357Z,0.30
2022-11-26T07:35:19.050Z,0.30
2022-11-26T07:37:45.917Z,0.30
2022-11-26T07:40:13.151Z,0.30
2022-11-26T07:42:39.909Z,0.30
2022-11-26T07:45:07.135Z,0.30
2022-11-26T07:47:34.074Z,0.40
2022-11-26T07:50:00.747Z,0.30
2022-11-26T07:52:27.502Z,0.30
2022-11-26T07:54:54.258Z,0.40
2022-11-26T07:57:22.560Z,0.40
2022-11-26T07:59:49.304Z,0.35
2022-11-26T08:02:16.768Z,0.30
2022-11-26T08:04:43.519Z,0.35
2022-11-26T08:07:10.208Z,0.30
2022-11-26T08:09:37.140Z,0.30
2022-11-26T08:12:04.087Z,0.30
2022-11-26T08:14:31.127Z,0.30
2022-11-26T08:16:57.999Z,0.30
2022-11-26T08:19:25.036Z,0.40
2022-11-26T08:21:52.016Z,0.30
2022-11-26T08:24:20.251Z,0.30
2022-11-26T08:26:47.122Z,0.30
2022-11-26T08:29:14.570Z,0.30
2022-11-26T08:31:45.688Z,0.30
2022-11-26T08:34:15.356Z,0.30
2022-11-26T08:36:42.453Z,0.30
2022-11-26T08:39:13.814Z,0.30
2022-11-26T08:41:40.919Z,0.20
2022-11-26T08:44:08.440Z,0.20
2022-11-26T08:46:37.739Z,0.22
2022-11-26T08:49:05.118Z,0.30
2022-11-26T08:51:31.799Z,0.30
2022-11-26T08:53:58.550Z,0.20
2022-11-26T08:56:25.864Z,0.20
2022-11-26T08:58:52.683Z,0.20
2022-11-26T09:01:22.160Z,0.30
2022-11-26T09:03:51.421Z,0.20
2022-11-26T09:06:19.644Z,0.10
2022-11-26T09:09:05.599Z,0.20
2022-11-26T09:11:34.621Z,0.10
2022-11-26T09:14:01.718Z,0.10
2022-11-26T09:16:29.210Z,0.10
2022-11-26T09:18:56.386Z,0.10
2022-11-26T09:21:23.059Z,0.10
2022-11-26T09:23:49.809Z,0.10
2022-11-26T09:26:18.263Z,0.10
2022-11-26T09:28:44.894Z,0.10
2022-11-26T09:31:11.561Z,0.00
2022-11-26T09:33:38.275Z,0.00
2022-11-26T09:36:09.854Z,0.00
2022-11-26T09:38:37.478Z,0.00
2022-11-26T09:41:06.991Z,0.00
2022-11-26T09:43:53.838Z,0.00
2022-11-26T09:46:45.451Z,0.00
2022-11-26T09:49:18.858Z,0.00
2022-11-26T09:51:48.650Z,0.00
2022-11-26T09:54:21.518Z,0.00
2022-11-26T09:56:56.948Z,0.00
2022-11-26T09:59:26.530Z,0.00
2022-11-26T10:01:53.255Z,0.00
2022-11-26T10:04:31.193Z,0.00
2022-11-26T10:07:19.966Z,0.00
2022-11-26T10:10:21.952Z,0.00
2022-11-26T10:13:16.769Z,0.00
2022-11-26T10:15:50.663Z,0.00
2022-11-26T10:18:52.652Z,0.00
2022-11-26T10:21:57.681Z,0.00
2022-11-26T10:24:32.018Z,0.00
2022-11-26T10:27:03.836Z,0.00
2022-11-26T10:29:39.769Z,0.00
2022-11-26T10:32:32.265Z,0.00
2022-11-26T10:34:59.145Z,0.00
2022-11-26T10:37:28.006Z,0.00
2022-11-26T10:40:25.567Z,0.00
2022-11-26T10:43:03.443Z,0.00
2022-11-26T10:45:42.960Z,0.00
2022-11-26T10:48:19.120Z,0.00
2022-11-26T10:51:09.881Z,0.00
2022-11-26T10:53:55.872Z,0.00
2022-11-26T10:56:28.464Z,0.00
2022-11-26T10:59:01.421Z,0.00
2022-11-26T11:01:39.096Z,0.00
2022-11-26T11:04:24.366Z,0.00
2022-11-26T11:06:51.207Z,0.00
2022-11-26T11:09:25.829Z,0.00
2022-11-26T11:12:11.081Z,0.00
2022-11-26T11:14:43.039Z,0.00
2022-11-26T11:17:27.403Z,0.00
2022-11-26T11:19:54.198Z,0.00
2022-11-26T11:22:21.891Z,0.00
2022-11-26T11:24:49.012Z,0.00
2022-11-26T11:27:25.583Z,0.00
2022-11-26T11:29:52.445Z,0.00
2022-11-26T11:32:40.594Z,0.00
2022-11-26T11:35:25.543Z,0.00
2022-11-26T11:37:54.829Z,0.00
2022-11-26T11:40:27.297Z,0.00
2022-11-26T11:43:02.993Z,0.00
2022-11-26T11:45:34.430Z,0.00
2022-11-26T11:48:32.681Z,0.00
2022-11-26T11:51:25.382Z,0.00
2022-11-26T11:54:22.862Z,0.00
2022-11-26T11:57:13.647Z,0.00
2022-11-26T12:00:10.496Z,0.03
2022-11-26T12:02:55.042Z,0.10
2022-11-26T12:06:06.247Z,0.10
2022-11-26T12:09:10.734Z,0.10
2022-11-26T12:11:59.053Z,0.10
2022-11-26T12:14:30.310Z,0.10
2022-11-26T12:17:08.301Z,0.10
2022-11-26T12:19:54.529Z,0.10
2022-11-26T12:22:30.020Z,0.10
2022-11-26T12:25:03.891Z,0.17
2022-11-26T12:27:43.298Z,0.20
2022-11-26T12:30:14.895Z,0.20
2022-11-26T12:32:52.239Z,0.10
2022-11-26T12:35:42.094Z,0.10
2022-11-26T12:38:22.156Z,0.10
2022-11-26T12:41:00.813Z,0.10
2022-11-26T12:43:48.912Z,0.10
2022-11-26T12:46:25.930Z,0.20
2022-11-26T12:49:23.174Z,0.20
2022-11-26T12:52:11.630Z,0.20
2022-11-26T12:54:51.293Z,0.20
2022-11-26T12:57:27.417Z,0.10
2022-11-26T12:59:56.561Z,0.10
2022-11-26T13:02:28.136Z,0.17
2022-11-26T13:04:56.376Z,0.17
2022-11-26T13:07:47.251Z,0.10
2022-11-26T13:10:52.823Z,0.10
2022-11-26T13:13:40.881Z,0.10
2022-11-26T13:16:22.861Z,0.10
2022-11-26T13:19:06.900Z,0.10
2022-11-26T13:21:58.230Z,0.10
2022-11-26T13:24:24.895Z,0.20
2022-11-26T13:27:14.527Z,0.10
2022-11-26T13:30:10.734Z,0.10
2022-11-26T13:33:02.016Z,0.10
2022-11-26T13:35:48.629Z,0.10
2022-11-26T13:38:27.822Z,0.10
2022-11-26T13:41:13.496Z,0.10
2022-11-26T13:43:59.321Z,0.20
2022-11-26T13:46:41.600Z,0.20
2022-11-26T13:49:45.719Z,0.10
2022-11-26T13:52:34.569Z,0.10
2022-11-26T13:55:45.898Z,0.10
2022-11-26T13:58:51.318Z,0.10
2022-11-26T14:01:36.927Z,0.10
2022-11-26T14:04:26.387Z,0.10
2022-11-26T14:07:13.085Z,0.10
2022-11-26T14:09:42.641Z,0.20
2022-11-26T14:12:13.274Z,0.10
2022-11-26T14:14:43.122Z,0.10
2022-11-26T14:17:20.145Z,0.10
2022-11-26T14:19:52.005Z,0.10
2022-11-26T14:22:21.903Z,0.20
2022-11-26T14:24:48.792Z,0.10
2022-11-26T14:27:24.618Z,0.10
2022-11-26T14:29:58.138Z,0.20
2022-11-26T14:32:27.115Z,0.10
2022-11-26T14:34:55.639Z,0.20
2022-11-26T14:37:25.165Z,0.10
2022-11-26T14:40:09.454Z,0.20
2022-11-26T14:42:36.145Z,0.20
2022-11-26T14:45:16.730Z,0.20
2022-11-26T14:47:45.138Z,0.20
2022-11-26T14:50:15.893Z,0.20
2022-11-26T14:52:43.706Z,0.10
2022-11-26T14:55:23.954Z,0.20
2022-11-26T14:58:10.059Z,0.10
2022-11-26T15:00:37.018Z,0.20
2022-11-26T15:03:04.588Z,0.10
2022-11-26T15:05:33.950Z,0.25
2022-11-26T15:08:20.564Z,0.20
2022-11-26T15:10:52.169Z,0.20
2022-11-26T15:13:37.438Z,0.20
2022-11-26T15:16:26.607Z,0.10
2022-11-26T15:18:55.042Z,0.30
2022-11-26T15:21:25.027Z,0.20
2022-11-26T15:23:53.273Z,0.20
2022-11-26T15:26:25.641Z,0.30
2022-11-26T15:28:52.537Z,0.20
2022-11-26T15:31:19.363Z,0.20
2022-11-26T15:33:47.151Z,0.20
2022-11-26T15:36:17.606Z,0.30
2022-11-26T15:39:07.201Z,0.30
2022-11-26T15:41:42.376Z,0.20
2022-11-26T15:44:24.789Z,0.30
2022-11-26T15:46:54.133Z,0.20
2022-11-26T15:49:36.948Z,0.20
2022-11-26T15:52:09.582Z,0.20
2022-11-26T15:55:04.661Z,0.30
2022-11-26T15:57:31.254Z,0.20
2022-11-26T16:00:05.981Z,0.20
2022-11-26T16:02:33.144Z,0.20
2022-11-26T16:05:01.811Z,0.30
2022-11-26T16:07:33.129Z,0.30
2022-11-26T16:10:21.452Z,0.20
2022-11-26T16:13:15.364Z,0.20
2022-11-26T16:15:59.809Z,0.30
2022-11-26T16:18:37.998Z,0.20
2022-11-26T16:21:48.222Z,0.20
2022-11-26T16:24:21.015Z,0.30
2022-11-26T16:26:59.312Z,0.30
2022-11-26T16:29:27.198Z,0.20
2022-11-26T16:31:54.281Z,0.20
2022-11-26T16:34:21.563Z,0.20
2022-11-26T16:36:48.574Z,0.30
2022-11-26T16:39:16.650Z,0.30
2022-11-26T16:41:43.592Z,0.30
2022-11-26T16:44:10.274Z,0.30
2022-11-26T16:46:38.157Z,0.20
2022-11-26T16:49:05.186Z,0.20
2022-11-26T16:51:32.012Z,0.20
2022-11-26T16:53:58.975Z,0.20
2022-11-26T16:56:38.814Z,0.20
2022-11-26T16:59:19.483Z,0.30
2022-11-26T17:01:46.195Z,0.30
2022-11-26T17:04:14.426Z,0.30
2022-11-26T17:06:41.921Z,0.30
2022-11-26T17:09:18.649Z,0.30
2022-11-26T17:11:45.746Z,0.30
2022-11-26T17:14:12.726Z,0.30
2022-11-26T17:16:40.698Z,0.30
2022-11-26T17:19:16.573Z,0.30
2022-11-26T17:21:43.361Z,0.30
2022-11-26T17:24:10.111Z,0.20
2022-11-26T17:26:36.954Z,0.30
2022-11-26T17:29:03.854Z,0.30
2022-11-26T17:31:31.020Z,0.20
2022-11-26T17:33:57.821Z,0.30
2022-11-26T17:36:24.716Z,0.30
2022-11-26T17:38:51.985Z,0.30
2022-11-26T17:41:19.112Z,0.30
2022-11-26T17:43:45.880Z,0.30
2022-11-26T17:46:20.344Z,0.30
2022-11-26T17:48:48.643Z,0.30
2022-11-26T17:51:15.889Z,0.25
2022-11-26T17:53:43.768Z,0.20
2022-11-26T17:56:22.676Z,0.20
2022-11-26T17:58:50.115Z,0.27
2022-11-26T18:01:17.893Z,0.30
2022-11-26T18:03:45.252Z,0.25
2022-11-26T18:06:18.154Z,0.20
2022-11-26T18:08:45.771Z,0.30
2022-11-26T18:11:14.229Z,0.25
2022-11-26T18:13:40.929Z,0.20
2022-11-26T18:16:07.727Z,0.20
2022-11-26T18:18:34.389Z,0.25
2022-11-26T18:21:01.043Z,0.20
2022-11-26T18:23:27.831Z,0.30
2022-11-26T18:25:54.481Z,0.30
2022-11-26T18:28:21.276Z,0.30
2022-11-26T18:30:48.037Z,0.30
2022-11-26T18:33:16.168Z,0.30
2022-11-26T18:35:42.913Z,0.30
2022-11-26T18:38:11.401Z,0.30
2022-11-26T18:40:38.429Z,0.30
2022-11-26T18:43:05.340Z,0.30
2022-11-26T18:45:32.628Z,0.30
2022-11-26T18:48:00.358Z,0.40
2022-11-26T18:50:27.281Z,0.40
2022-11-26T18:52:55.961Z,0.40
2022-11-26T18:55:22.612Z,0.40
2022-11-26T18:57:49.334Z,0.30
2022-11-26T19:00:16.403Z,0.30
2022-11-26T19:02:43.320Z,0.30
2022-11-26T19:05:10.034Z,0.30
2022-11-26T19:07:37.327Z,0.20
2022-11-26T19:10:04.506Z,0.28
2022-11-26T19:12:31.534Z,0.28
2022-11-26T19:14:58.245Z,0.30
2022-11-26T19:17:24.953Z,0.30
2022-11-26T19:19:51.980Z,0.30
2022-11-26T19:22:18.834Z,0.30
2022-11-26T19:24:45.494Z,0.30
2022-11-26T19:27:13.190Z,0.40
2022-11-26T19:29:40.518Z,0.40
2022-11-26T19:32:07.433Z,0.30
2022-11-26T19:34:34.214Z,0.30
2022-11-26T19:37:00.927Z,0.30
2022-11-26T19:39:27.899Z,0.28
2022-11-26T19:41:55.218Z,0.30
2022-11-26T19:44:22.037Z,0.30
2022-11-26T19:46:48.777Z,0.30
2022-11-26T19:49:15.543Z,0.30
2022-11-26T19:51:42.311Z,0.30
2022-11-26T19:54:09.227Z,0.30
2022-11-26T19:56:36.856Z,0.40
2022-11-26T19:59:03.945Z,0.38
2022-11-26T20:01:33.230Z,0.40
2022-11-26T20:04:02.358Z,0.30
2022-11-26T20:06:30.402Z,0.30
2022-11-26T20:09:00.663Z,0.30
2022-11-26T20:11:29.172Z,0.32
2022-11-26T20:13:56.775Z,0.40
2022-11-26T20:16:28.732Z,0.30
2022-11-26T20:18:56.176Z,0.30
2022-11-26T20:21:28.031Z,0.30
2022-11-26T20:23:57.555Z,0.30
2022-11-26T20:26:30.632Z,0.30
2022-11-26T20:29:01.711Z,0.30
2022-11-26T20:31:28.556Z,0.30
2022-11-26T20:33:55.645Z,0.30
2022-11-26T20:36:23.447Z,0.40
2022-11-26T20:38:54.955Z,0.40
2022-11-26T20:41:23.208Z,0.30
2022-11-26T20:43:55.085Z,0.22
2022-11-26T20:46:26.280Z,0.30
2022-11-26T20:48:53.089Z,0.30
2022-11-26T20:51:21.954Z,0.30
2022-11-26T20:53:50.736Z,0.30
2022-11-26T20:56:19.923Z,0.40
2022-11-26T20:58:46.964Z,0.40
2022-11-26T21:01:22.067Z,0.40
2022-11-26T21:03:49.702Z,0.35
2022-11-26T21:06:18.975Z,0.30
2022-11-26T21:08:46.400Z,0.30
2022-11-26T21:11:14.760Z,0.40
2022-11-26T21:13:42.244Z,0.30
2022-11-26T21:16:13.933Z,0.30
2022-11-26T21:18:40.738Z,0.30
2022-11-26T21:21:15.417Z,0.30
2022-11-26T21:23:43.708Z,0.30
2022-11-26T21:26:19.766Z,0.30
2022-11-26T21:28:51.531Z,0.40
2022-11-26T21:31:19.143Z,0.40
2022-11-26T21:33:46.869Z,0.30
2022-11-26T21:36:16.029Z,0.28
2022-11-26T21:38:43.517Z,0.30
2022-11-26T21:41:12.611Z,0.30
2022-11-26T21:43:40.585Z,0.30
2022-11-26T21:46:10.127Z,0.30
2022-11-26T21:48:37.025Z,0.30
2022-11-26T21:51:08.766Z,0.30
2022-11-26T21:53:36.025Z,0.40
2022-11-26T21:56:10.250Z,0.40
2022-11-26T21:58:37.301Z,0.40
2022-11-26T22:01:15.575Z,0.30
2022-11-26T22:03:44.709Z,0.30
2022-11-26T22:06:12.557Z,0.30
2022-11-26T22:08:39.981Z,0.25
2022-11-26T22:11:16.798Z,0.30
2022-11-26T22:13:43.835Z,0.30
2022-11-26T22:16:12.123Z,0.30
2022-11-26T22:18:40.508Z,0.30
2022-11-26T22:21:10.906Z,0.30
2022-11-26T22:23:37.706Z,0.30
2022-11-26T22:26:04.808Z,0.30
2022-11-26T22:28:31.619Z,0.40
2022-11-26T22:30:58.864Z,0.30
2022-11-26T22:33:25.857Z,0.40
2022-11-26T22:35:52.655Z,0.40
2022-11-26T22:38:19.415Z,0.30
2022-11-26T22:40:46.370Z,0.30
2022-11-26T22:43:13.143Z,0.30
2022-11-26T22:45:40.226Z,0.30
2022-11-26T22:48:07.002Z,0.25
2022-11-26T22:50:34.179Z,0.20
2022-11-26T22:53:00.919Z,0.30
2022-11-26T22:55:27.606Z,0.30
2022-11-26T22:57:54.316Z,0.30
2022-11-26T23:00:43.935Z,0.30
2022-11-26T23:03:11.211Z,0.30
2022-11-26T23:05:38.816Z,0.30
2022-11-26T23:08:05.765Z,0.30
2022-11-26T23:10:32.758Z,0.30
2022-11-26T23:12:59.523Z,0.30
2022-11-26T23:15:26.296Z,0.30
2022-11-26T23:17:53.202Z,0.30
2022-11-26T23:20:20.141Z,0.30
2022-11-26T23:22:46.838Z,0.30
2022-11-26T23:25:13.861Z,0.30
2022-11-26T23:27:40.580Z,0.40
2022-11-26T23:30:07.991Z,0.40
2022-11-26T23:32:34.794Z,0.33
2022-11-26T23:35:02.239Z,0.30
2022-11-26T23:37:29.153Z,0.20
2022-11-26T23:39:55.807Z,0.30
2022-11-26T23:42:22.644Z,0.30
2022-11-26T23:44:49.352Z,0.40
2022-11-26T23:47:16.067Z,0.40
2022-11-26T23:49:42.755Z,0.40
2022-11-26T23:52:09.438Z,0.40
2022-11-26T23:54:36.147Z,0.40
2022-11-26T23:57:06.554Z,0.30
2022-11-26T23:59:34.987Z,0.30
